Stockville, Nebraska
Current Conditions -  °F | °C
As of 1:53 AM on Monday 26 Jan 2015 (Local Time) from KMCK Reporting Station
Clear Clear  
Wind Chill: 26°   Ceiling: Unl
Heat Index: 35°   Visibility: 10mi
Dew Point: 29°   Wind: 13mph
Humidity: 78%   Direction: 260°W
Pressure: 30.03"   Gusts: NA
Location:  40.53°N, 100.38°W
Report Text: KMCK 260753Z AUTO 26011KT 10SM CLR 02/M02 A3003 RMK AO2 SLP175 T00171017
Loading
Personal Weather Stations






























Interactive Weather Map New forecast layout! Learn more

10-Day Weather Forecast

Advertisements
Track Severe Weather on mobile